Great Falls/Malmstrom AFB, Montana
Current Conditions -  °F | °C
As of 11:53 AM on Thursday 27 Nov 2014 (Local Time) from KGTF Reporting Station
Clear Clear  
Wind Chill: 13°   Ceiling: Unl
Heat Index: 13°   Visibility: 10mi
Dew Point:   Wind: 24mph
Humidity: 47%   Direction: 240°WSW
Pressure: 29.78"   Gusts: 35mph
Location:  47.47°N, 111.32°W
Report Text: KGTF 271853Z 24021G30KT 10SM CLR 13/02 A2978 RMK AO2 PK WND 23043/1756 SLP098 T01330022
Loading
Personal Weather Stations






























Interactive Weather Map New forecast layout! Learn more

10-Day Weather Forecast

Advertisements
Track Severe Weather on mobile